Time;durP1;ratioP1;P1;durP2;ratioP2;P2;SDS_P1;SDS_P2;PMS_P1;PMS_P2;Temp;Humidity;BMP_temperature;BMP_pressure;BME280_temperature;BME280_humidity;BME280_pressure;Samples;Min_cycle;Max_cycle;Signal;HPM_P1;HPM_P2
2023/05/25 00:01:15;;;;;;;9.80;8.80;;;;;;;12.61;100.00;99728.06;5071421;28;20237;-79
2023/05/25 00:03:42;;;;;;;10.57;9.53;;;;;;;12.72;100.00;99724.59;5078268;28;20189;-80
2023/05/25 00:06:09;;;;;;;9.97;8.97;;;;;;;12.73;100.00;99728.13;5074701;28;20207;-79
2023/05/25 00:08:39;;;;;;;10.97;9.00;;;;;;;12.65;100.00;99720.34;5081192;28;20192;-79
2023/05/25 00:11:06;;;;;;;9.93;8.70;;;;;;;12.54;100.00;99737.28;5072338;28;20680;-80
2023/05/25 00:13:33;;;;;;;10.03;9.03;;;;;;;12.60;100.00;99730.97;5060103;28;20666;-80
2023/05/25 00:15:59;;;;;;;10.00;9.00;;;;;;;12.52;100.00;99729.44;5060885;28;20191;-79
2023/05/25 00:18:26;;;;;;;9.60;8.60;;;;;;;12.43;100.00;99730.84;5062674;28;20198;-79
2023/05/25 00:20:53;;;;;;;10.03;9.00;;;;;;;12.55;100.00;99734.34;5080420;28;20264;-79
2023/05/25 00:23:20;;;;;;;11.23;9.00;;;;;;;12.40;100.00;99738.53;5079369;28;20179;-79
2023/05/25 00:25:47;;;;;;;11.50;9.00;;;;;;;12.35;100.00;99739.22;5080465;28;20186;-79
2023/05/25 00:28:13;;;;;;;9.83;8.83;;;;;;;12.30;100.00;99739.91;5072162;28;20258;-80
2023/05/25 00:30:42;;;;;;;9.23;8.37;;;;;;;12.34;100.00;99745.63;5058904;28;20203;-80
2023/05/25 00:33:09;;;;;;;10.67;8.83;;;;;;;12.37;100.00;99739.78;5060355;28;20206;-79
2023/05/25 00:35:36;;;;;;;9.80;8.80;;;;;;;12.27;100.00;99747.63;5060124;28;20253;-79
2023/05/25 00:38:04;;;;;;;9.60;8.60;;;;;;;12.42;100.00;99747.16;5059732;28;20264;-79
2023/05/25 00:40:31;;;;;;;9.97;8.97;;;;;;;12.45;100.00;99738.69;5068354;28;20230;-80
2023/05/25 00:42:58;;;;;;;9.43;8.50;;;;;;;12.36;100.00;99735.50;5059058;28;20216;-79
2023/05/25 00:45:26;;;;;;;9.93;8.93;;;;;;;12.30;100.00;99739.09;5065976;28;20337;-80
2023/05/25 00:47:53;;;;;;;9.90;8.90;;;;;;;12.30;100.00;99737.22;5079857;28;20191;-79
2023/05/25 00:50:41;;;;;;;10.03;9.03;;;;;;;12.34;100.00;99729.53;5078833;28;20567;-79
2023/05/25 00:53:09;;;;;;;9.57;8.70;;;;;;;12.23;100.00;99727.59;5064502;28;20191;-79
2023/05/25 00:56:07;;;;;;;10.37;8.87;;;;;;;12.15;100.00;99733.28;5058771;28;20194;-79
2023/05/25 00:58:36;;;;;;;10.33;9.33;;;;;;;12.19;100.00;99727.25;5063400;28;20527;-80
2023/05/25 01:01:03;;;;;;;9.80;8.90;;;;;;;12.25;100.00;99726.34;5051338;28;20700;-80
2023/05/25 01:03:36;;;;;;;10.40;9.07;;;;;;;12.21;100.00;99735.91;5060003;28;20230;-80
2023/05/25 01:06:08;;;;;;;10.73;9.07;;;;;;;12.17;100.00;99725.84;5050088;28;20284;-80
2023/05/25 01:08:36;;;;;;;8.93;8.13;;;;;;;12.16;100.00;99725.03;5079137;28;20182;-80
2023/05/25 01:11:03;;;;;;;9.53;8.63;;;;;;;12.11;100.00;99722.19;5079100;28;20254;-80
2023/05/25 01:13:31;;;;;;;9.10;8.30;;;;;;;12.05;100.00;99728.47;5061587;28;20695;-80
2023/05/25 01:15:58;;;;;;;9.27;8.37;;;;;;;12.10;100.00;99741.22;5078336;28;20228;-80
2023/05/25 01:18:24;;;;;;;10.87;7.90;;;;;;;12.08;100.00;99738.78;5073134;28;20218;-80
2023/05/25 01:20:52;;;;;;;8.73;7.80;;;;;;;12.08;100.00;99740.63;5076040;28;20202;-80
2023/05/25 01:23:27;;;;;;;9.83;7.77;;;;;;;11.97;100.00;99736.84;5080152;28;20700;-80
2023/05/25 01:25:58;;;;;;;9.80;8.10;;;;;;;11.94;100.00;99750.72;5060703;28;20195;-80
2023/05/25 01:28:30;;;;;;;11.73;8.27;;;;;;;11.86;100.00;99745.63;5073963;28;20189;-80
2023/05/25 01:30:57;;;;;;;9.03;8.13;;;;;;;11.94;100.00;99747.22;5080509;28;20196;-80
2023/05/25 01:33:28;;;;;;;8.87;7.93;;;;;;;11.99;100.00;99753.53;5079569;28;20202;-80
2023/05/25 01:35:55;;;;;;;8.20;7.40;;;;;;;11.87;100.00;99744.59;5080045;28;20212;-79
2023/05/25 01:38:21;;;;;;;10.83;8.30;;;;;;;12.08;100.00;99749.50;5068511;28;20281;-81
2023/05/25 01:40:48;;;;;;;9.37;8.00;;;;;;;12.19;100.00;99748.72;5058660;28;20314;-80
2023/05/25 01:43:15;;;;;;;8.67;7.77;;;;;;;12.03;100.00;99751.22;5059222;28;20182;-80
2023/05/25 01:45:43;;;;;;;9.63;8.13;;;;;;;12.13;100.00;99754.19;5059224;28;20174;-80
2023/05/25 01:48:44;;;;;;;8.47;7.60;;;;;;;12.05;100.00;99754.50;5057227;28;20193;-80
2023/05/25 01:51:23;;;;;;;8.87;7.57;;;;;;;11.95;100.00;99744.28;5065375;28;20206;-80
2023/05/25 01:53:55;;;;;;;9.00;7.80;;;;;;;11.98;100.00;99748.41;5078032;28;20175;-80
2023/05/25 01:56:23;;;;;;;10.33;7.60;;;;;;;12.02;100.00;99757.63;5078801;28;20266;-80
2023/05/25 01:58:50;;;;;;;8.03;7.13;;;;;;;11.97;100.00;99755.63;5076297;28;20231;-80
2023/05/25 02:01:18;;;;;;;9.90;7.23;;;;;;;12.03;100.00;99753.91;5076375;28;20298;-80
2023/05/25 02:03:47;;;;;;;8.20;7.20;;;;;;;12.02;100.00;99755.78;5046490;28;20210;-80
2023/05/25 02:06:15;;;;;;;8.20;7.37;;;;;;;12.02;100.00;99757.63;5032958;28;20203;-79
2023/05/25 02:08:44;;;;;;;8.57;7.67;;;;;;;11.94;100.00;99747.22;5070432;28;20609;-80
2023/05/25 02:11:15;;;;;;;7.90;7.20;;;;;;;11.89;100.00;99748.72;5056797;28;20204;-80
2023/05/25 02:13:44;;;;;;;9.13;7.50;;;;;;;11.75;100.00;99757.13;5057361;28;20238;-79
2023/05/25 02:16:11;;;;;;;8.40;7.33;;;;;;;11.65;100.00;99752.25;5063397;28;20201;-80
2023/05/25 02:18:43;;;;;;;10.23;8.07;;;;;;;11.67;100.00;99760.06;5057890;28;20252;-80
2023/05/25 02:21:11;;;;;;;9.83;7.17;;;;;;;11.60;100.00;99762.84;5065309;28;20206;-79
2023/05/25 02:23:37;;;;;;;9.70;7.80;;;;;;;11.54;100.00;99773.63;5066653;28;20228;-80
2023/05/25 02:26:05;;;;;;;8.30;7.50;;;;;;;11.55;100.00;99780.66;5072365;28;20229;-80
2023/05/25 02:28:32;;;;;;;8.97;7.80;;;;;;;11.54;100.00;99776.31;5078908;28;20315;-80
2023/05/25 02:30:59;;;;;;;10.87;7.93;;;;;;;11.68;100.00;99777.81;5077375;28;20206;-80
2023/05/25 02:33:26;;;;;;;8.53;7.73;;;;;;;11.55;100.00;99788.69;5069420;28;20276;-79
2023/05/25 02:35:53;;;;;;;8.83;7.93;;;;;;;11.50;100.00;99784.00;5077293;28;20279;-79
2023/05/25 02:38:20;;;;;;;10.70;7.70;;;;;;;11.53;100.00;99796.13;5078388;28;20713;-80
2023/05/25 02:40:47;;;;;;;8.37;7.57;;;;;;;11.38;100.00;99789.25;5063953;28;20211;-80
2023/05/25 02:43:14;;;;;;;10.57;7.97;;;;;;;11.33;100.00;99785.63;5057419;28;20642;-80
2023/05/25 02:45:41;;;;;;;8.60;7.60;;;;;;;11.28;100.00;99791.63;5058973;28;20212;-80
2023/05/25 02:48:08;;;;;;;10.40;7.90;;;;;;;11.26;100.00;99800.94;5058915;28;20190;-79
2023/05/25 02:50:35;;;;;;;9.07;8.17;;;;;;;11.22;100.00;99797.88;5057236;28;20619;-80
2023/05/25 02:53:10;;;;;;;8.63;7.77;;;;;;;11.19;100.00;99792.97;5057407;28;20213;-80
2023/05/25 02:55:39;;;;;;;8.63;7.60;;;;;;;11.16;100.00;99792.56;5057552;28;20186;-79
2023/05/25 02:58:08;;;;;;;9.67;8.37;;;;;;;11.19;100.00;99786.78;5057334;28;20209;-80
2023/05/25 03:01:04;;;;;;;10.13;8.00;;;;;;;11.14;100.00;99798.16;5057224;28;20255;-80
2023/05/25 03:03:34;;;;;;;8.70;7.83;;;;;;;11.18;100.00;99791.31;5061576;28;20200;-80
2023/05/25 03:06:02;;;;;;;9.80;8.80;;;;;;;11.12;100.00;99800.22;5075593;28;20663;-80
2023/05/25 03:08:29;;;;;;;8.67;7.53;;;;;;;11.17;100.00;99800.41;5042063;28;20568;-80
2023/05/25 03:10:59;;;;;;;9.27;8.07;;;;;;;11.26;100.00;99795.56;5063298;28;20202;-79
2023/05/25 03:13:27;;;;;;;9.07;8.03;;;;;;;11.22;100.00;99795.19;5063321;28;20201;-80
2023/05/25 03:15:53;;;;;;;8.57;7.67;;;;;;;11.22;100.00;99799.72;5064359;28;20212;-80
2023/05/25 03:18:22;;;;;;;10.47;8.10;;;;;;;11.37;100.00;99797.53;5080687;28;20231;-79
2023/05/25 03:20:49;;;;;;;11.30;8.27;;;;;;;11.39;100.00;99798.13;5063023;28;20201;-80
2023/05/25 03:23:16;;;;;;;10.40;8.17;;;;;;;11.45;100.00;99789.19;5072456;28;20188;-80
2023/05/25 03:25:46;;;;;;;11.10;9.07;;;;;;;11.48;100.00;99791.44;5046415;28;20580;-80
2023/05/25 03:28:12;;;;;;;8.73;7.87;;;;;;;11.57;100.00;99794.69;5062818;28;20194;-79
2023/05/25 03:30:39;;;;;;;8.93;8.13;;;;;;;11.60;100.00;99800.41;5063410;28;20198;-80
2023/05/25 03:33:07;;;;;;;9.23;7.77;;;;;;;11.62;100.00;99795.63;5063629;28;20194;-80
2023/05/25 03:35:40;;;;;;;8.67;7.80;;;;;;;11.61;100.00;99802.06;5048120;28;20185;-80
2023/05/25 03:38:08;;;;;;;10.20;8.30;;;;;;;11.75;100.00;99798.22;5047493;28;20205;-80
2023/05/25 03:40:35;;;;;;;10.10;8.20;;;;;;;11.77;100.00;99796.13;5064317;28;20213;-80
2023/05/25 03:43:02;;;;;;;9.40;7.37;;;;;;;11.70;100.00;99803.41;5063751;28;20196;-80
2023/05/25 03:45:30;;;;;;;8.77;7.97;;;;;;;11.77;100.00;99814.91;5063596;28;20194;-80
2023/05/25 03:47:57;;;;;;;9.30;8.30;;;;;;;11.82;100.00;99806.19;5063932;28;20194;-80
2023/05/25 03:50:24;;;;;;;10.53;7.80;;;;;;;11.89;100.00;99815.84;5063269;28;20196;-80
2023/05/25 03:52:50;;;;;;;10.13;8.40;;;;;;;12.02;100.00;99814.84;5063451;28;20197;-79
2023/05/25 03:55:18;;;;;;;11.17;8.43;;;;;;;12.10;100.00;99814.53;5064570;28;20188;-79
2023/05/25 03:57:45;;;;;;;10.50;7.97;;;;;;;12.65;100.00;99817.94;5064890;28;20204;-80
2023/05/25 04:00:12;;;;;;;9.03;7.70;;;;;;;13.72;100.00;99820.63;5046963;28;20217;-80
2023/05/25 04:02:41;;;;;;;8.77;7.03;;;;;;;14.83;100.00;99817.50;5063323;28;20648;-80
2023/05/25 04:05:08;;;;;;;8.07;7.27;;;;;;;15.48;100.00;99816.97;5047502;28;20194;-79
2023/05/25 04:07:36;;;;;;;10.20;7.37;;;;;;;16.44;100.00;99816.38;5063966;28;20194;-80
2023/05/25 04:10:03;;;;;;;9.00;7.07;;;;;;;16.22;100.00;99811.00;5063904;28;20181;-79
2023/05/25 04:12:31;;;;;;;9.87;6.60;;;;;;;17.03;100.00;99814.59;5064219;28;20202;-79
2023/05/25 04:14:58;;;;;;;6.67;5.97;;;;;;;17.43;100.00;99813.28;5062511;28;20224;-79
2023/05/25 04:17:27;;;;;;;8.17;7.10;;;;;;;17.74;100.00;99808.91;5046702;28;20553;-79
2023/05/25 04:19:54;;;;;;;8.27;6.57;;;;;;;17.99;100.00;99812.59;5060732;28;20619;-79
2023/05/25 04:22:21;;;;;;;9.57;7.07;;;;;;;17.87;100.00;99822.03;5059634;28;20204;-79
2023/05/25 04:24:48;;;;;;;8.50;7.20;;;;;;;17.15;100.00;99814.44;5042696;28;20196;-79
2023/05/25 04:27:15;;;;;;;9.00;6.77;;;;;;;16.54;100.00;99812.97;5058795;28;20192;-79
2023/05/25 04:29:42;;;;;;;10.20;7.17;;;;;;;15.84;100.00;99814.56;5057748;28;20263;-79
2023/05/25 04:32:35;;;;;;;10.97;7.77;;;;;;;15.51;100.00;99813.78;5058610;28;20197;-79
2023/05/25 04:35:27;;;;;;;10.23;7.30;;;;;;;14.87;100.00;99813.25;5049128;28;20654;-79
2023/05/25 04:37:56;;;;;;;9.37;7.07;;;;;;;14.99;100.00;99822.09;5059430;28;20216;-79
2023/05/25 04:40:23;;;;;;;10.27;7.03;;;;;;;14.87;100.00;99819.47;5068892;28;20215;-79
2023/05/25 04:42:52;;;;;;;9.40;7.40;;;;;;;14.88;100.00;99821.09;5068955;28;20200;-79
2023/05/25 04:45:20;;;;;;;9.23;7.17;;;;;;;14.78;100.00;99812.03;5066141;28;20287;-79
2023/05/25 04:47:48;;;;;;;9.97;7.37;;;;;;;14.93;100.00;99823.88;5033523;28;20229;-79
2023/05/25 04:50:16;;;;;;;10.40;8.10;;;;;;;14.87;100.00;99834.84;5068876;28;20203;-79
2023/05/25 04:52:43;;;;;;;8.63;6.93;;;;;;;14.89;100.00;99832.69;5061161;28;20204;-79
2023/05/25 04:55:10;;;;;;;10.70;8.17;;;;;;;14.93;100.00;99826.56;5068565;28;20686;-79
2023/05/25 04:57:40;;;;;;;9.00;7.50;;;;;;;14.91;100.00;99831.41;5068049;28;20197;-79
2023/05/25 05:00:09;;;;;;;9.40;7.50;;;;;;;14.95;100.00;99831.75;5054380;28;20200;-79
2023/05/25 05:02:37;;;;;;;8.23;7.43;;;;;;;14.97;100.00;99833.16;5040902;28;20270;-79
2023/05/25 05:05:05;;;;;;;8.80;7.60;;;;;;;15.06;100.00;99832.75;5036361;28;20232;-79
2023/05/25 05:07:32;;;;;;;9.93;7.37;;;;;;;15.15;100.00;99840.19;5025106;28;20724;-80
2023/05/25 05:09:59;;;;;;;10.80;6.80;;;;;;;15.27;100.00;99842.81;5039874;28;20494;-79
2023/05/25 05:12:26;;;;;;;8.13;7.27;;;;;;;15.35;100.00;99835.13;5053273;28;20184;-79
2023/05/25 05:14:56;;;;;;;9.50;7.00;;;;;;;15.40;100.00;99842.47;5062366;28;20196;-79
2023/05/25 05:17:25;;;;;;;8.43;7.30;;;;;;;15.39;100.00;99848.97;5058753;28;20221;-79
2023/05/25 05:19:51;;;;;;;8.80;6.80;;;;;;;15.42;100.00;99838.47;5056879;28;20191;-79
2023/05/25 05:22:18;;;;;;;10.17;7.10;;;;;;;15.33;100.00;99833.75;5056706;28;20212;-79
2023/05/25 05:24:45;;;;;;;8.93;6.63;;;;;;;15.51;100.00;99833.50;5072851;28;20203;-79
2023/05/25 05:27:19;;;;;;;9.57;7.00;;;;;;;15.56;100.00;99836.28;5042652;28;20231;-79
2023/05/25 05:29:56;;;;;;;7.77;6.97;;;;;;;15.48;100.00;99830.47;5062711;28;20185;-81
2023/05/25 05:33:07;;;;;;;10.03;7.20;;;;;;;15.67;100.00;99837.28;5067862;28;20177;-81
2023/05/25 05:35:57;;;;;;;8.90;6.73;;;;;;;15.65;100.00;99832.09;5055557;28;20295;-82
2023/05/25 05:38:32;;;;;;;9.47;6.90;;;;;;;16.00;100.00;99839.09;5089315;28;20212;-81
2023/05/25 05:41:13;;;;;;;7.03;6.20;;;;;;;15.96;100.00;99835.25;5089024;28;20207;-81
2023/05/25 05:43:49;;;;;;;6.97;6.33;;;;;;;16.11;100.00;99841.66;5052875;28;20198;-80
2023/05/25 05:46:16;;;;;;;9.47;6.33;;;;;;;16.13;100.00;99839.53;5082370;28;20248;-80
2023/05/25 05:48:43;;;;;;;9.20;6.70;;;;;;;16.25;100.00;99847.53;5081644;28;20267;-80
2023/05/25 05:51:11;;;;;;;10.80;6.50;;;;;;;16.34;100.00;99848.72;5080068;28;20185;-80
2023/05/25 05:53:39;;;;;;;8.27;6.20;;;;;;;16.45;100.00;99849.66;5080724;28;20182;-80
2023/05/25 05:56:16;;;;;;;9.87;6.67;;;;;;;16.69;100.00;99856.47;5041223;28;20214;-80
2023/05/25 05:58:46;;;;;;;9.03;5.80;;;;;;;16.61;100.00;99857.72;5039776;28;20194;-81
2023/05/25 06:01:15;;;;;;;9.13;6.30;;;;;;;16.82;100.00;99852.53;5039288;28;20321;-80
2023/05/25 06:03:47;;;;;;;8.43;6.70;;;;;;;16.79;100.00;99848.47;5055112;28;20236;-80
2023/05/25 06:06:15;;;;;;;9.47;6.73;;;;;;;16.58;100.00;99849.31;5022447;28;20197;-80
2023/05/25 06:08:42;;;;;;;8.93;6.10;;;;;;;16.89;100.00;99850.47;5056850;28;20193;-80
2023/05/25 06:11:09;;;;;;;9.07;6.00;;;;;;;16.85;100.00;99855.53;5041569;28;20197;-80
2023/05/25 06:13:36;;;;;;;8.80;5.47;;;;;;;16.83;100.00;99859.59;5059520;28;20209;-80
2023/05/25 06:16:04;;;;;;;8.77;5.93;;;;;;;16.79;100.00;99856.59;5060224;28;20197;-80
2023/05/25 06:18:30;;;;;;;8.13;5.80;;;;;;;16.82;100.00;99858.78;5051682;28;20209;-81
2023/05/25 06:21:01;;;;;;;8.67;6.03;;;;;;;17.00;100.00;99861.13;5034533;28;20661;-80
2023/05/25 06:23:28;;;;;;;7.37;5.60;;;;;;;17.30;100.00;99870.59;5060701;28;20194;-80
2023/05/25 06:25:55;;;;;;;7.17;5.77;;;;;;;17.24;100.00;99864.31;5039973;28;20656;-80
2023/05/25 06:28:23;;;;;;;8.73;6.00;;;;;;;17.26;100.00;99861.38;5060816;28;20200;-81
2023/05/25 06:30:51;;;;;;;8.97;5.90;;;;;;;17.28;100.00;99860.03;5059174;28;20206;-80
2023/05/25 06:33:18;;;;;;;7.47;5.70;;;;;;;17.24;100.00;99863.50;5061755;28;20218;-81
2023/05/25 06:35:45;;;;;;;8.50;6.17;;;;;;;17.63;100.00;99864.94;5046087;28;20186;-81
2023/05/25 06:38:20;;;;;;;9.07;5.87;;;;;;;17.53;100.00;99868.38;5062262;28;20213;-81
2023/05/25 06:40:50;;;;;;;6.90;5.57;;;;;;;17.44;100.00;99863.69;5046582;28;20232;-81
2023/05/25 06:43:20;;;;;;;7.70;5.27;;;;;;;17.70;100.00;99862.00;5064020;28;20204;-80
2023/05/25 06:46:17;;;;;;;9.17;6.10;;;;;;;17.57;100.00;99861.34;5060993;28;20276;-81
2023/05/25 06:48:48;;;;;;;8.13;5.50;;;;;;;17.74;100.00;99863.13;5063213;28;20204;-81
2023/05/25 06:51:16;;;;;;;10.00;5.90;;;;;;;17.95;100.00;99871.13;5058598;28;20190;-79
2023/05/25 06:53:43;;;;;;;10.27;6.23;;;;;;;17.79;100.00;99874.81;5058724;28;20277;-80
2023/05/25 06:56:10;;;;;;;8.20;5.63;;;;;;;18.08;100.00;99856.28;5055312;28;20596;-80
2023/05/25 06:58:38;;;;;;;8.27;5.67;;;;;;;18.02;100.00;99865.47;5058571;28;20186;-81
2023/05/25 07:01:16;;;;;;;8.37;5.80;;;;;;;18.06;100.00;99853.00;5062907;28;20233;-82
2023/05/25 07:03:50;;;;;;;7.90;5.57;;;;;;;18.19;100.00;99865.31;5061278;28;20209;-80
2023/05/25 07:06:19;;;;;;;9.13;5.10;;;;;;;17.98;100.00;99857.03;5060583;28;20182;-81
2023/05/25 07:08:54;;;;;;;6.63;5.60;;;;;;;18.25;100.00;99858.78;5044657;28;20220;-81
2023/05/25 07:11:22;;;;;;;6.50;5.23;;;;;;;18.48;100.00;99852.94;5059650;28;20189;-79
2023/05/25 07:13:49;;;;;;;7.30;5.90;;;;;;;18.39;100.00;99847.22;5057745;28;20231;-82
2023/05/25 07:16:16;;;;;;;6.63;5.53;;;;;;;18.66;100.00;99859.84;5059713;28;20565;-80
2023/05/25 07:18:43;;;;;;;5.77;5.10;;;;;;;18.90;100.00;99859.06;5056069;28;20288;-80
2023/05/25 07:21:10;;;;;;;9.13;5.50;;;;;;;18.79;100.00;99864.75;5036887;28;20556;-80
2023/05/25 07:23:39;;;;;;;7.67;5.70;;;;;;;18.88;100.00;99863.97;5059025;28;20174;-80
2023/05/25 07:26:06;;;;;;;8.30;5.77;;;;;;;18.70;100.00;99861.75;5058480;28;20207;-80
2023/05/25 07:28:32;;;;;;;7.70;5.60;;;;;;;18.46;100.00;99865.97;5058163;28;20198;-80
2023/05/25 07:31:00;;;;;;;9.67;5.90;;;;;;;18.51;100.00;99862.44;5058157;28;20292;-80
2023/05/25 07:33:27;;;;;;;7.73;5.30;;;;;;;18.46;100.00;99855.94;5059793;28;20217;-80
2023/05/25 07:35:57;;;;;;;7.07;5.63;;;;;;;18.24;100.00;99862.63;5043023;28;20249;-80
2023/05/25 07:38:23;;;;;;;7.80;5.50;;;;;;;18.38;100.00;99869.97;5060248;28;20209;-80
2023/05/25 07:40:51;;;;;;;5.33;4.63;;;;;;;18.67;100.00;99866.88;5060386;28;20260;-80
2023/05/25 07:43:20;;;;;;;7.60;4.87;;;;;;;18.81;100.00;99865.28;5042154;28;20255;-80
2023/05/25 07:45:46;;;;;;;6.50;5.20;;;;;;;18.73;100.00;99863.91;5059420;28;20185;-80
2023/05/25 07:48:13;;;;;;;9.57;5.00;;;;;;;18.55;100.00;99866.28;5058423;28;20239;-81
2023/05/25 07:50:40;;;;;;;7.53;5.27;;;;;;;18.61;100.00;99862.53;5069669;28;20222;-80
2023/05/25 07:53:09;;;;;;;7.80;4.50;;;;;;;18.53;100.00;99861.13;5070020;28;20292;-80
2023/05/25 07:55:36;;;;;;;6.70;5.07;;;;;;;18.45;100.00;99867.84;5078392;28;20208;-80
2023/05/25 07:58:06;;;;;;;6.87;5.40;;;;;;;19.04;100.00;99866.69;5081182;28;20243;-80
2023/05/25 08:00:33;;;;;;;8.87;5.37;;;;;;;19.21;100.00;99870.81;5079783;28;20192;-80
2023/05/25 08:03:01;;;;;;;6.47;4.90;;;;;;;19.33;100.00;99871.34;5057978;28;20233;-80
2023/05/25 08:05:28;;;;;;;10.13;5.13;;;;;;;18.99;100.00;99870.19;5058244;28;20198;-80
2023/05/25 08:07:55;;;;;;;9.13;5.57;;;;;;;18.87;100.00;99872.34;5066733;28;20194;-79
2023/05/25 08:10:23;;;;;;;5.70;4.80;;;;;;;19.31;100.00;99876.25;5081273;28;20181;-81
2023/05/25 08:12:49;;;;;;;8.47;5.43;;;;;;;19.37;100.00;99871.59;5061720;28;20197;-80
2023/05/25 08:15:18;;;;;;;7.97;5.00;;;;;;;19.41;100.00;99869.19;5079639;28;20177;-80
2023/05/25 08:17:45;;;;;;;6.00;5.10;;;;;;;19.62;100.00;99873.56;5061174;28;20185;-80
2023/05/25 08:20:13;;;;;;;7.70;5.50;;;;;;;19.69;100.00;99882.25;5063778;28;20211;-80
2023/05/25 08:22:39;;;;;;;8.70;5.97;;;;;;;19.63;100.00;99869.75;5052854;28;20242;-80
2023/05/25 08:25:06;;;;;;;5.90;5.30;;;;;;;19.75;100.00;99873.81;5057053;28;20671;-80
2023/05/25 08:27:34;;;;;;;7.53;5.80;;;;;;;19.76;100.00;99880.88;5073832;28;20277;-80
2023/05/25 08:30:04;;;;;;;9.23;5.70;;;;;;;19.76;100.00;99878.16;5045772;28;20209;-79
2023/05/25 08:32:31;;;;;;;7.97;5.27;;;;;;;19.75;100.00;99881.97;5057159;28;20675;-80
2023/05/25 08:34:57;;;;;;;9.07;5.43;;;;;;;19.71;100.00;99875.44;5059230;28;20213;-80
2023/05/25 08:37:25;;;;;;;10.73;5.97;;;;;;;19.29;100.00;99875.69;5057245;28;20255;-79
2023/05/25 08:39:51;;;;;;;7.40;5.07;;;;;;;19.65;100.00;99873.81;5057331;28;20178;-79
2023/05/25 08:42:18;;;;;;;9.33;5.43;;;;;;;19.60;100.00;99867.56;5056994;28;20292;-79
2023/05/25 08:44:45;;;;;;;11.27;5.47;;;;;;;19.67;100.00;99876.25;5056969;28;20186;-79
2023/05/25 08:47:14;;;;;;;7.70;5.30;;;;;;;20.12;100.00;99873.47;5038095;28;20621;-80
2023/05/25 08:49:41;;;;;;;5.80;5.07;;;;;;;20.22;100.00;99872.63;5054297;28;20240;-79
2023/05/25 08:52:12;;;;;;;6.30;5.00;;;;;;;20.09;100.00;99881.38;5055251;28;20648;-79
2023/05/25 08:54:42;;;;;;;7.43;5.20;;;;;;;20.34;100.00;99875.06;5055435;28;20179;-79
2023/05/25 08:57:14;;;;;;;7.83;5.00;;;;;;;20.54;100.00;99866.81;5053981;28;20190;-80
2023/05/25 09:00:18;;;;;;;11.63;4.90;;;;;;;20.56;100.00;99878.25;5053859;28;20246;-79
2023/05/25 09:02:49;;;;;;;6.50;5.20;;;;;;;20.38;99.29;99873.44;5036262;28;20751;-79
2023/05/25 09:05:16;;;;;;;9.00;5.37;;;;;;;20.63;99.28;99879.56;5054548;28;20203;-80
2023/05/25 09:07:43;;;;;;;8.40;4.90;;;;;;;20.80;98.12;99875.69;5054368;28;20262;-80
2023/05/25 09:10:10;;;;;;;8.90;5.43;;;;;;;20.69;97.02;99869.47;5054996;28;20601;-80
2023/05/25 09:12:38;;;;;;;7.00;4.97;;;;;;;20.79;100.00;99876.78;5054808;28;20226;-80
2023/05/25 09:15:05;;;;;;;6.77;4.80;;;;;;;20.51;98.44;99873.63;5054756;28;20211;-80
2023/05/25 09:17:31;;;;;;;8.00;5.00;;;;;;;20.65;97.02;99882.00;5054782;28;20275;-80
2023/05/25 09:20:02;;;;;;;6.53;4.73;;;;;;;20.94;95.33;99872.06;5054027;28;20261;-80
2023/05/25 09:22:28;;;;;;;6.00;5.13;;;;;;;20.90;97.61;99872.91;5054538;28;20208;-80
2023/05/25 09:24:55;;;;;;;9.40;5.50;;;;;;;20.73;95.25;99878.69;5054468;28;20188;-80
2023/05/25 09:27:22;;;;;;;6.00;5.13;;;;;;;20.73;94.85;99880.59;5053159;28;20239;-80
2023/05/25 09:29:50;;;;;;;8.23;5.10;;;;;;;20.92;95.56;99876.97;5053114;28;20560;-79
2023/05/25 09:32:19;;;;;;;7.73;5.20;;;;;;;20.98;95.06;99867.69;5052959;28;20632;-79
2023/05/25 09:34:46;;;;;;;6.97;5.07;;;;;;;21.19;94.64;99873.81;5054462;28;20650;-80
2023/05/25 09:37:15;;;;;;;6.43;4.83;;;;;;;21.33;92.40;99871.25;5049935;28;20216;-79
2023/05/25 09:39:42;;;;;;;7.43;5.53;;;;;;;21.24;94.30;99865.59;5049909;28;20664;-80
2023/05/25 09:42:10;;;;;;;7.93;5.13;;;;;;;21.23;93.21;99872.16;5015368;28;20230;-80
2023/05/25 09:44:37;;;;;;;7.37;5.10;;;;;;;21.20;94.88;99875.44;5044627;28;20188;-80
2023/05/25 09:47:05;;;;;;;6.23;5.27;;;;;;;21.24;92.94;99881.13;5038755;28;20623;-80
2023/05/25 09:49:31;;;;;;;6.53;5.27;;;;;;;21.49;91.30;99873.59;5034733;28;20201;-80
2023/05/25 09:51:59;;;;;;;5.80;4.90;;;;;;;21.62;92.14;99871.31;5040657;28;20663;-82
2023/05/25 09:54:26;;;;;;;8.03;5.10;;;;;;;21.69;91.10;99860.91;5031207;28;20271;-82
2023/05/25 09:56:53;;;;;;;6.87;5.70;;;;;;;21.34;91.57;99871.00;5054452;28;20620;-80
2023/05/25 09:59:21;;;;;;;7.73;5.37;;;;;;;21.41;90.83;99863.31;5046809;28;20666;-80
2023/05/25 10:01:52;;;;;;;6.03;5.23;;;;;;;21.42;91.15;99859.47;5045653;28;20786;-80
2023/05/25 10:04:40;;;;;;;7.03;5.27;;;;;;;21.37;91.87;99864.97;5047464;28;20272;-79
2023/05/25 10:07:07;;;;;;;10.60;5.80;;;;;;;21.32;91.35;99859.53;5046489;28;20248;-80
2023/05/25 10:09:39;;;;;;;7.73;5.30;;;;;;;21.35;92.11;99859.00;5039708;28;20185;-81
2023/05/25 10:12:06;;;;;;;7.27;5.17;;;;;;;21.89;92.96;99863.41;5033735;28;20188;-80
2023/05/25 10:14:35;;;;;;;6.87;4.90;;;;;;;21.97;91.58;99859.28;5046427;28;20645;-80
2023/05/25 10:17:04;;;;;;;8.80;5.20;;;;;;;22.04;89.03;99860.56;5038212;28;20211;-81
2023/05/25 10:19:41;;;;;;;6.07;4.87;;;;;;;21.94;89.41;99858.75;5035703;28;20712;-80
2023/05/25 10:22:15;;;;;;;5.50;5.00;;;;;;;21.73;88.20;99856.50;5049858;28;20208;-79
2023/05/25 10:25:07;;;;;;;7.70;4.77;;;;;;;21.81;85.81;99861.31;5055488;28;20563;-80
2023/05/25 10:27:43;;;;;;;7.13;5.43;;;;;;;21.99;87.60;99855.16;5051340;28;20203;-80
2023/05/25 10:30:10;;;;;;;7.83;5.50;;;;;;;22.16;93.67;99863.69;5051755;28;20203;-80
2023/05/25 10:32:37;;;;;;;8.97;5.53;;;;;;;21.68;90.27;99851.91;5049152;28;20238;-80
2023/05/25 10:35:05;;;;;;;10.20;5.97;;;;;;;21.24;91.87;99838.38;5046600;28;20659;-80
2023/05/25 10:37:33;;;;;;;6.00;5.27;;;;;;;21.72;91.84;99849.41;5048214;28;20230;-80
2023/05/25 10:40:01;;;;;;;6.27;4.80;;;;;;;22.36;87.99;99851.72;5042298;28;20268;-80
2023/05/25 10:42:28;;;;;;;7.57;4.97;;;;;;;22.58;89.46;99852.00;5050995;28;20622;-80
2023/05/25 10:44:56;;;;;;;9.53;5.60;;;;;;;22.34;88.26;99843.03;5049014;28;20209;-80
2023/05/25 10:47:23;;;;;;;7.33;5.73;;;;;;;22.64;89.31;99834.44;5050685;28;20249;-80
2023/05/25 10:49:59;;;;;;;7.97;5.60;;;;;;;22.21;89.40;99830.09;5056330;28;20236;-80
2023/05/25 10:52:30;;;;;;;8.00;5.77;;;;;;;22.54;88.13;99836.47;5054884;28;20273;-79
2023/05/25 10:55:03;;;;;;;8.27;5.87;;;;;;;22.12;87.27;99827.16;5043351;28;20191;-79
2023/05/25 10:57:29;;;;;;;6.47;5.60;;;;;;;22.14;86.83;99832.34;5046999;28;20197;-80
2023/05/25 11:00:04;;;;;;;8.07;6.50;;;;;;;22.31;84.37;99824.50;5050480;28;20193;-81
2023/05/25 11:02:54;;;;;;;5.73;5.13;;;;;;;22.61;85.25;99828.75;5051763;28;20753;-82
2023/05/25 11:05:24;;;;;;;9.40;5.30;;;;;;;22.59;87.94;99836.41;5057421;28;20220;-80
2023/05/25 11:07:55;;;;;;;6.23;5.17;;;;;;;22.82;84.10;99813.72;5062628;28;20190;-84
2023/05/25 11:11:01;;;;;;;7.07;5.63;;;;;;;22.83;83.61;99823.56;5055819;28;20188;-80
2023/05/25 11:13:30;;;;;;;7.30;5.50;;;;;;;22.81;82.54;99817.59;5082205;28;20217;-80
2023/05/25 11:16:16;;;;;;;7.87;5.43;;;;;;;22.71;84.91;99820.47;5088727;28;20195;-80
2023/05/25 11:18:51;;;;;;;7.47;5.30;;;;;;;22.33;85.96;99817.66;5063835;28;20233;-81
2023/05/25 11:21:31;;;;;;;8.17;5.00;;;;;;;22.74;86.16;99817.13;5055542;28;20279;-79
2023/05/25 11:24:03;;;;;;;6.97;5.07;;;;;;;22.76;85.13;99804.00;5038433;28;20286;-79
2023/05/25 11:26:31;;;;;;;7.05;5.75;;;;;;;23.13;84.42;99798.50;5056550;28;20201;-80
2023/05/25 11:28:59;;;;;;;7.15;5.30;;;;;;;22.47;90.01;99790.44;5047456;28;20182;-80
2023/05/25 11:31:35;;;;;;;6.05;5.15;;;;;;;23.13;83.19;99790.31;5044158;28;20202;-80
2023/05/25 11:34:10;;;;;;;5.80;5.13;;;;;;;23.39;84.00;99798.06;5046602;28;20205;-80
2023/05/25 11:36:38;;;;;;;9.47;5.73;;;;;;;21.89;87.77;99784.31;5054593;28;20278;-80
2023/05/25 11:39:05;;;;;;;7.00;5.57;;;;;;;21.81;89.24;99776.78;5050041;28;20276;-80